createdAt,value
2019-04-20T00:00:05.859Z,13.38
2019-04-20T00:02:29.532Z,15.78
2019-04-20T00:04:51.404Z,12.10
2019-04-20T00:07:12.305Z,12.88
2019-04-20T00:09:36.983Z,15.85
2019-04-20T00:12:03.817Z,10.73
2019-04-20T00:14:22.471Z,18.12
2019-04-20T00:16:39.926Z,9.03
2019-04-20T00:19:03.605Z,14.40
2019-04-20T00:21:42.652Z,13.35
2019-04-20T00:24:01.041Z,14.53
2019-04-20T00:29:00.189Z,10.38
2019-04-20T00:31:23.537Z,14.00
2019-04-20T00:33:44.895Z,16.95
2019-04-20T00:35:52.936Z,14.03
2019-04-20T00:38:13.965Z,16.87
2019-04-20T00:40:35.566Z,10.98
2019-04-20T00:42:59.566Z,13.35
2019-04-20T00:45:25.778Z,13.33
2019-04-20T00:47:47.824Z,10.78
2019-04-20T00:50:19.566Z,15.80
2019-04-20T00:52:43.766Z,12.67
2019-04-20T00:54:47.370Z,10.78
2019-04-20T00:57:17.674Z,18.32
2019-04-20T00:59:51.420Z,14.33
2019-04-20T01:02:09.069Z,14.38
2019-04-20T01:04:38.784Z,15.38
2019-04-20T01:06:53.963Z,12.73
2019-04-20T01:09:07.622Z,15.63
2019-04-20T01:11:35.468Z,12.03
2019-04-20T01:13:57.391Z,17.53
2019-04-20T01:16:26.793Z,13.55
2019-04-20T01:18:35.710Z,15.18
2019-04-20T01:21:03.881Z,15.03
2019-04-20T01:23:21.292Z,15.40
2019-04-20T01:25:43.754Z,12.68
2019-04-20T01:28:18.312Z,9.97
2019-04-20T01:30:32.214Z,10.70
2019-04-20T01:33:01.680Z,14.70
2019-04-20T01:35:27.116Z,10.80
2019-04-20T01:37:46.985Z,11.87
2019-04-20T01:39:56.797Z,13.83
2019-04-20T01:42:15.137Z,12.78
2019-04-20T01:44:40.198Z,13.60
2019-04-20T01:47:01.513Z,13.27
2019-04-20T01:49:22.786Z,14.28
2019-04-20T01:51:52.466Z,14.65
2019-04-20T01:54:21.349Z,17.00
2019-04-20T01:56:43.659Z,13.95
2019-04-20T01:59:21.423Z,15.55
2019-04-20T02:01:55.671Z,14.07
2019-04-20T02:04:20.492Z,14.13
2019-04-20T02:06:46.602Z,20.95
2019-04-20T02:11:31.364Z,12.60
2019-04-20T02:13:51.657Z,12.43
2019-04-20T02:16:17.992Z,9.93
2019-04-20T02:18:42.066Z,12.07
2019-04-20T02:21:13.590Z,19.73
2019-04-20T02:23:28.382Z,13.10
2019-04-20T02:25:37.682Z,9.38
2019-04-20T02:28:20.411Z,16.55
2019-04-20T02:30:55.740Z,14.18
2019-04-20T02:33:29.570Z,15.13
2019-04-20T02:36:04.210Z,17.02
2019-04-20T02:38:21.750Z,12.73
2019-04-20T02:41:03.349Z,16.65
2019-04-20T02:43:09.442Z,11.65
2019-04-20T02:45:34.838Z,17.87
2019-04-20T02:47:53.481Z,18.52
2019-04-20T02:50:15.747Z,19.63
2019-04-20T02:55:02.175Z,15.95
2019-04-20T02:57:17.807Z,11.75
2019-04-20T03:01:51.788Z,15.30
2019-04-20T03:03:57.642Z,13.53
2019-04-20T03:06:23.321Z,15.43
2019-04-20T03:09:00.757Z,14.30
2019-04-20T03:11:21.223Z,10.63
2019-04-20T03:13:44.094Z,16.00
2019-04-20T03:16:00.144Z,11.87
2019-04-20T03:18:25.300Z,12.60
2019-04-20T03:20:46.614Z,12.63
2019-04-20T03:25:48.381Z,10.90
2019-04-20T03:28:11.798Z,17.23
2019-04-20T03:33:21.126Z,22.00
2019-04-20T03:35:23.937Z,12.60
2019-04-20T03:38:03.608Z,12.20
2019-04-20T03:40:01.494Z,19.25
2019-04-20T03:42:10.773Z,22.02
2019-04-20T03:44:34.010Z,21.40
2019-04-20T03:46:58.025Z,12.90
2019-04-20T03:49:42.312Z,17.95
2019-04-20T03:51:58.553Z,18.98
2019-04-20T03:54:20.194Z,13.30
2019-04-20T03:57:13.928Z,18.73
2019-04-20T03:59:51.164Z,16.25
2019-04-20T04:04:38.252Z,13.90
2019-04-20T04:06:47.928Z,16.90
2019-04-20T04:09:18.851Z,20.27
2019-04-20T04:11:45.360Z,15.13
2019-04-20T04:13:50.863Z,14.75
2019-04-20T04:16:14.776Z,16.62
2019-04-20T04:18:40.312Z,17.70
2019-04-20T04:21:01.918Z,11.03
2019-04-20T04:23:35.648Z,14.78
2019-04-20T04:26:00.717Z,15.90
2019-04-20T04:28:23.846Z,18.20
2019-04-20T04:30:39.288Z,15.48
2019-04-20T04:33:35.390Z,20.13
2019-04-20T04:35:20.121Z,13.77
2019-04-20T04:37:45.883Z,13.77
2019-04-20T04:40:23.661Z,11.63
2019-04-20T04:42:39.152Z,20.37
2019-04-20T04:44:46.446Z,12.98
2019-04-20T04:47:04.393Z,16.87
2019-04-20T04:49:28.403Z,11.90
2019-04-20T04:51:53.517Z,18.37
2019-04-20T04:54:16.567Z,20.10
2019-04-20T04:56:28.558Z,17.50
2019-04-20T04:58:49.597Z,21.80
2019-04-20T05:01:16.741Z,19.02
2019-04-20T05:03:58.254Z,18.02
2019-04-20T05:06:13.402Z,19.70
2019-04-20T05:08:27.343Z,17.90
2019-04-20T05:10:41.637Z,20.47
2019-04-20T05:13:02.966Z,18.42
2019-04-20T05:15:37.669Z,19.15
2019-04-20T05:18:07.317Z,15.03
2019-04-20T05:20:29.264Z,14.73
2019-04-20T05:22:57.707Z,18.35
2019-04-20T05:25:36.696Z,17.98
2019-04-20T05:28:00.714Z,17.42
2019-04-20T05:30:07.975Z,17.87
2019-04-20T05:32:39.687Z,12.93
2019-04-20T05:35:14.690Z,12.45
2019-04-20T05:37:53.303Z,13.33
2019-04-20T05:39:58.981Z,15.40
2019-04-20T05:42:19.156Z,10.57
2019-04-20T05:44:43.964Z,17.67
2019-04-20T05:47:00.997Z,17.92
2019-04-20T05:49:27.075Z,17.10
2019-04-20T05:51:43.206Z,8.93
2019-04-20T05:54:13.812Z,16.10
2019-04-20T05:56:35.904Z,18.98
2019-04-20T05:58:56.619Z,15.85
2019-04-20T06:01:20.492Z,25.17
2019-04-20T06:03:37.171Z,25.80
2019-04-20T06:06:11.839Z,18.57
2019-04-20T06:08:35.483Z,16.23
2019-04-20T06:10:49.419Z,13.38
2019-04-20T06:13:14.076Z,11.80
2019-04-20T06:15:46.690Z,15.63
2019-04-20T06:18:17.709Z,16.07
2019-04-20T06:20:47.591Z,12.28
2019-04-20T06:23:28.529Z,13.13
2019-04-20T06:26:13.461Z,12.60
2019-04-20T06:28:17.293Z,12.10
2019-04-20T06:30:39.115Z,13.62
2019-04-20T06:34:01.513Z,10.33
2019-04-20T06:36:29.397Z,10.27
2019-04-20T06:38:53.916Z,12.00
2019-04-20T06:41:10.468Z,10.25
2019-04-20T06:43:11.507Z,14.13
2019-04-20T06:45:48.905Z,9.18
2019-04-20T06:47:57.826Z,11.18
2019-04-20T06:50:18.593Z,9.53
2019-04-20T06:53:01.569Z,13.03
2019-04-20T06:55:19.852Z,12.68
2019-04-20T06:58:00.749Z,14.33
2019-04-20T07:00:18.172Z,9.85
2019-04-20T07:02:36.670Z,9.88
2019-04-20T07:04:55.563Z,16.35
2019-04-20T07:07:18.402Z,12.75
2019-04-20T07:12:02.961Z,8.28
2019-04-20T07:14:11.330Z,8.60
2019-04-20T07:16:49.668Z,9.58
2019-04-20T07:19:19.054Z,9.75
2019-04-20T07:22:15.238Z,8.93
2019-04-20T07:24:25.293Z,7.67
2019-04-20T07:26:44.592Z,6.97
2019-04-20T07:29:06.843Z,13.62
2019-04-20T07:31:27.979Z,8.83
2019-04-20T07:33:49.454Z,6.97
2019-04-20T07:36:15.019Z,12.35
2019-04-20T07:38:41.802Z,12.28
2019-04-20T07:40:50.345Z,9.68
2019-04-20T07:43:14.691Z,9.35
2019-04-20T07:45:40.215Z,7.37
2019-04-20T07:48:13.555Z,9.10
2019-04-20T07:50:21.850Z,8.45
2019-04-20T07:52:46.209Z,8.08
2019-04-20T07:55:33.334Z,12.13
2019-04-20T07:57:35.331Z,11.48
2019-04-20T08:00:06.353Z,8.48
2019-04-20T08:02:42.589Z,11.05
2019-04-20T08:05:04.357Z,10.75
2019-04-20T08:07:14.604Z,9.40
2019-04-20T08:09:44.179Z,8.33
2019-04-20T08:12:29.412Z,10.53
2019-04-20T08:14:52.167Z,9.68
2019-04-20T08:17:14.102Z,9.58
2019-04-20T08:19:33.500Z,12.95
2019-04-20T08:21:52.513Z,6.65
2019-04-20T08:24:07.361Z,8.68
2019-04-20T08:26:20.273Z,10.80
2019-04-20T08:28:49.615Z,6.67
2019-04-20T08:31:18.112Z,9.95
2019-04-20T08:34:07.417Z,13.08
2019-04-20T08:36:23.333Z,10.03
2019-04-20T08:39:06.200Z,10.63
2019-04-20T08:41:03.297Z,9.43
2019-04-20T08:43:43.713Z,9.15
2019-04-20T08:45:57.115Z,9.30
2019-04-20T08:48:19.182Z,8.78
2019-04-20T08:50:35.905Z,8.50
2019-04-20T08:53:08.946Z,7.85
2019-04-20T08:55:14.796Z,8.07
2019-04-20T08:57:22.565Z,9.70
2019-04-20T08:59:46.931Z,14.00
2019-04-20T09:02:11.518Z,9.25
2019-04-20T09:04:38.596Z,10.80
2019-04-20T09:07:02.406Z,11.03
2019-04-20T09:09:44.239Z,7.13
2019-04-20T09:11:59.294Z,9.63
2019-04-20T09:14:00.803Z,7.42
2019-04-20T09:16:26.885Z,8.55
2019-04-20T09:18:51.429Z,6.93
2019-04-20T09:21:14.689Z,7.28
2019-04-20T09:23:49.656Z,7.12
2019-04-20T09:26:10.110Z,9.28
2019-04-20T09:28:27.192Z,7.90
2019-04-20T09:30:51.683Z,8.95
2019-04-20T09:33:29.965Z,9.43
2019-04-20T09:35:48.582Z,8.50
2019-04-20T09:38:17.671Z,7.15
2019-04-20T09:40:42.487Z,8.13
2019-04-20T09:42:47.802Z,10.70
2019-04-20T09:45:19.858Z,10.57
2019-04-20T09:47:36.837Z,7.05
2019-04-20T09:50:03.344Z,8.50
2019-04-20T09:52:28.992Z,10.82
2019-04-20T09:54:55.433Z,10.07
2019-04-20T09:57:20.504Z,8.98
2019-04-20T09:59:45.116Z,10.58
2019-04-20T10:01:55.542Z,8.80
2019-04-20T10:04:08.511Z,5.70
2019-04-20T10:06:33.651Z,7.03
2019-04-20T10:08:55.930Z,6.87
2019-04-20T10:11:13.815Z,8.08
2019-04-20T10:13:34.615Z,7.78
2019-04-20T10:15:55.536Z,10.98
2019-04-20T10:18:17.499Z,6.03
2019-04-20T10:20:40.582Z,8.43
2019-04-20T10:23:00.837Z,9.80
2019-04-20T10:25:22.485Z,8.50
2019-04-20T10:27:43.709Z,8.90
2019-04-20T10:30:06.005Z,17.35
2019-04-20T10:32:35.132Z,9.28
2019-04-20T10:34:48.922Z,8.35
2019-04-20T10:37:11.485Z,10.45
2019-04-20T10:39:34.259Z,8.50
2019-04-20T10:41:58.963Z,9.03
2019-04-20T10:44:18.636Z,7.12
2019-04-20T10:46:39.058Z,6.23
2019-04-20T10:49:02.644Z,10.23
2019-04-20T10:51:23.911Z,7.00
2019-04-20T10:53:44.505Z,8.03
2019-04-20T10:56:05.321Z,8.58
2019-04-20T10:58:25.434Z,9.58
2019-04-20T11:00:46.608Z,7.50
2019-04-20T11:03:08.096Z,7.17
2019-04-20T11:05:30.669Z,11.95
2019-04-20T11:07:54.599Z,6.42
2019-04-20T11:10:22.795Z,9.83
2019-04-20T11:12:38.149Z,11.43
2019-04-20T11:14:58.713Z,11.40
2019-04-20T11:17:20.352Z,6.60
2019-04-20T11:19:41.164Z,7.20
2019-04-20T11:22:04.121Z,6.77
2019-04-20T11:24:25.943Z,9.13
2019-04-20T11:26:48.182Z,6.67
2019-04-20T11:29:08.520Z,6.57
2019-04-20T11:31:37.412Z,7.55
2019-04-20T11:33:52.236Z,6.60
2019-04-20T11:36:12.901Z,13.55
2019-04-20T11:38:33.230Z,9.28
2019-04-20T11:41:03.893Z,9.30
2019-04-20T11:43:17.704Z,11.48
2019-04-20T11:45:40.579Z,6.80
2019-04-20T11:48:01.256Z,8.95
2019-04-20T11:50:21.972Z,6.80
2019-04-20T11:52:47.520Z,5.43
2019-04-20T11:55:10.598Z,11.57
2019-04-20T11:57:31.248Z,11.53
2019-04-20T11:59:53.131Z,5.25
2019-04-20T12:02:27.929Z,6.08
2019-04-20T12:04:52.004Z,5.80
2019-04-20T12:07:11.092Z,6.50
2019-04-20T12:09:31.523Z,9.47
2019-04-20T12:12:04.112Z,9.33
2019-04-20T12:14:16.702Z,5.90
2019-04-20T12:16:37.561Z,12.17
2019-04-20T12:18:58.110Z,10.37
2019-04-20T12:21:18.995Z,7.23
2019-04-20T12:23:40.348Z,6.63
2019-04-20T12:26:03.110Z,9.27
2019-04-20T12:28:23.742Z,9.73
2019-04-20T12:30:43.908Z,6.87
2019-04-20T12:33:05.607Z,7.60
2019-04-20T12:35:26.473Z,6.23
2019-04-20T12:37:47.342Z,5.53
2019-04-20T12:40:14.531Z,4.95
2019-04-20T12:42:34.874Z,6.97
2019-04-20T12:44:55.612Z,7.72
2019-04-20T12:47:17.391Z,5.93
2019-04-20T12:49:38.375Z,9.20
2019-04-20T12:52:01.616Z,7.22
2019-04-20T12:54:20.772Z,7.80
2019-04-20T12:56:42.435Z,7.90
2019-04-20T12:59:05.506Z,11.12
2019-04-20T13:01:25.857Z,8.47
2019-04-20T13:03:46.112Z,7.97
2019-04-20T13:06:07.878Z,10.20
2019-04-20T13:08:36.246Z,7.05
2019-04-20T13:10:55.909Z,8.65
2019-04-20T13:13:28.186Z,5.83
2019-04-20T13:15:50.208Z,8.65
2019-04-20T13:18:11.975Z,6.47
2019-04-20T13:20:32.452Z,5.80
2019-04-20T13:22:52.950Z,9.68
2019-04-20T13:25:14.911Z,7.47
2019-04-20T13:27:35.124Z,9.93
2019-04-20T13:29:58.544Z,10.20
2019-04-20T13:32:20.104Z,8.67
2019-04-20T13:34:42.343Z,6.60
2019-04-20T13:37:04.174Z,8.43
2019-04-20T13:39:26.861Z,8.00
2019-04-20T13:42:02.148Z,10.48
2019-04-20T13:44:11.974Z,7.58
2019-04-20T13:46:33.332Z,6.47
2019-04-20T13:48:53.631Z,5.42
2019-04-20T13:51:14.723Z,4.60
2019-04-20T13:53:35.057Z,7.58
2019-04-20T13:55:56.074Z,8.70
2019-04-20T13:58:35.974Z,5.50
2019-04-20T14:01:06.125Z,10.03
2019-04-20T14:03:29.964Z,7.42
2019-04-20T14:05:50.847Z,7.83
2019-04-20T14:08:11.939Z,6.78
2019-04-20T14:10:33.394Z,7.10
2019-04-20T14:13:01.683Z,5.05
2019-04-20T14:15:15.382Z,10.63
2019-04-20T14:17:37.116Z,4.58
2019-04-20T14:19:59.347Z,5.42
2019-04-20T14:22:20.891Z,9.05
2019-04-20T14:24:42.605Z,5.65
2019-04-20T14:27:03.309Z,6.50
2019-04-20T14:29:25.087Z,4.65
2019-04-20T14:31:45.983Z,7.20
2019-04-20T14:34:06.839Z,8.93
2019-04-20T14:36:28.710Z,9.00
2019-04-20T14:38:49.909Z,5.20
2019-04-20T14:41:16.371Z,8.13
2019-04-20T14:43:38.113Z,5.33
2019-04-20T14:45:58.919Z,7.80
2019-04-20T14:48:18.927Z,4.70
2019-04-20T14:50:41.288Z,8.33
2019-04-20T14:53:04.973Z,7.70
2019-04-20T14:55:25.892Z,5.72
2019-04-20T14:57:47.650Z,7.85
2019-04-20T15:00:13.930Z,6.20
2019-04-20T15:02:38.403Z,8.03
2019-04-20T15:05:01.413Z,8.67
2019-04-20T15:07:26.607Z,7.60
2019-04-20T15:09:48.944Z,7.92
2019-04-20T15:12:10.727Z,5.70
2019-04-20T15:14:32.382Z,7.90
2019-04-20T15:19:15.772Z,6.20
2019-04-20T15:21:47.443Z,8.43
2019-04-20T15:24:09.357Z,6.28
2019-04-20T15:26:30.875Z,7.67
2019-04-20T15:28:52.516Z,11.07
2019-04-20T15:31:20.322Z,8.97
2019-04-20T15:33:41.085Z,6.20
2019-04-20T15:36:02.220Z,10.30
2019-04-20T15:38:23.049Z,9.20
2019-04-20T15:40:44.805Z,6.23
2019-04-20T15:43:13.337Z,9.77
2019-04-20T15:45:33.546Z,6.97
2019-04-20T15:47:52.169Z,5.10
2019-04-20T15:50:13.852Z,5.70
2019-04-20T15:52:39.978Z,9.80
2019-04-20T15:55:01.859Z,7.28
2019-04-20T15:57:25.321Z,11.93
2019-04-20T15:59:44.482Z,6.50
2019-04-20T16:02:07.268Z,6.17
2019-04-20T16:07:05.812Z,7.37
2019-04-20T16:09:28.970Z,10.93
2019-04-20T16:11:50.846Z,12.88
2019-04-20T16:14:10.996Z,6.35
2019-04-20T16:16:34.015Z,10.93
2019-04-20T16:18:54.915Z,12.47
2019-04-20T16:21:22.411Z,6.30
2019-04-20T16:23:43.545Z,9.67
2019-04-20T16:26:11.153Z,12.93
2019-04-20T16:28:33.105Z,6.03
2019-04-20T16:30:55.808Z,7.33
2019-04-20T16:33:16.517Z,8.63
2019-04-20T16:35:38.848Z,10.72
2019-04-20T16:38:00.148Z,7.92
2019-04-20T16:40:20.908Z,10.40
2019-04-20T16:42:45.455Z,7.87
2019-04-20T16:45:07.713Z,10.00
2019-04-20T16:47:28.581Z,7.70
2019-04-20T16:49:48.878Z,9.68
2019-04-20T16:52:10.574Z,6.58
2019-04-20T16:54:32.577Z,7.17
2019-04-20T16:56:52.972Z,7.25
2019-04-20T16:59:17.275Z,12.23
2019-04-20T17:01:37.174Z,13.32
2019-04-20T17:04:04.810Z,9.13
2019-04-20T17:06:20.521Z,5.75
2019-04-20T17:08:42.733Z,8.23
2019-04-20T17:11:05.682Z,6.72
2019-04-20T17:13:35.277Z,9.48
2019-04-20T17:15:49.950Z,8.53
2019-04-20T17:18:10.095Z,6.47
2019-04-20T17:20:30.715Z,7.13
2019-04-20T17:22:51.146Z,10.47
2019-04-20T17:25:12.305Z,5.53
2019-04-20T17:27:37.161Z,7.17
2019-04-20T17:30:21.617Z,6.20
2019-04-20T17:32:41.227Z,11.07
2019-04-20T17:35:18.087Z,5.85
2019-04-20T17:37:32.869Z,9.15
2019-04-20T17:40:11.154Z,7.22
2019-04-20T17:42:23.960Z,7.45
2019-04-20T17:44:47.292Z,8.55
2019-04-20T17:47:13.637Z,7.50
2019-04-20T17:49:32.823Z,7.17
2019-04-20T17:52:05.097Z,8.70
2019-04-20T17:54:14.311Z,7.83
2019-04-20T17:58:58.541Z,9.08
2019-04-20T18:01:32.988Z,6.60
2019-04-20T18:04:11.368Z,9.00
2019-04-20T18:06:27.508Z,9.08
2019-04-20T18:08:48.371Z,13.83
2019-04-20T18:11:07.782Z,9.43
2019-04-20T18:13:27.533Z,6.87
2019-04-20T18:16:12.722Z,5.72
2019-04-20T18:18:39.832Z,7.65
2019-04-20T18:20:54.722Z,13.60
2019-04-20T18:23:16.384Z,7.50
2019-04-20T18:28:20.956Z,8.60
2019-04-20T18:30:39.009Z,9.17
2019-04-20T18:32:51.478Z,13.47
2019-04-20T18:35:22.935Z,7.00
2019-04-20T18:37:51.532Z,12.70
2019-04-20T18:40:11.331Z,13.57
2019-04-20T18:42:36.749Z,11.43
2019-04-20T18:45:08.924Z,8.47
2019-04-20T18:47:33.035Z,9.87
2019-04-20T18:49:49.494Z,7.57
2019-04-20T18:51:59.786Z,9.63
2019-04-20T18:54:24.285Z,13.27
2019-04-20T18:56:47.363Z,9.73
2019-04-20T18:59:05.203Z,12.58
2019-04-20T19:01:31.547Z,13.70
2019-04-20T19:03:48.720Z,14.07
2019-04-20T19:06:11.191Z,13.22
2019-04-20T19:08:39.114Z,14.03
2019-04-20T19:10:57.593Z,38.47
2019-04-20T19:13:22.362Z,23.32
2019-04-20T19:16:01.941Z,73.62
2019-04-20T19:18:25.220Z,24.67
2019-04-20T19:20:35.076Z,26.55
2019-04-20T19:22:55.906Z,29.50
2019-04-20T19:25:25.697Z,22.17
2019-04-20T19:27:48.414Z,19.87
2019-04-20T19:30:16.847Z,36.83
2019-04-20T19:32:39.466Z,51.90
2019-04-20T19:34:59.547Z,63.90
2019-04-20T19:37:15.743Z,47.43
2019-04-20T19:39:47.440Z,28.10
2019-04-20T19:42:08.155Z,14.75
2019-04-20T19:44:26.784Z,33.15
2019-04-20T19:47:03.839Z,17.50
2019-04-20T19:49:11.278Z,24.15
2019-04-20T19:51:43.031Z,50.52
2019-04-20T19:54:12.128Z,21.97
2019-04-20T19:56:26.106Z,28.75
2019-04-20T19:58:39.888Z,25.35
2019-04-20T20:00:55.567Z,29.37
2019-04-20T20:03:15.539Z,34.15
2019-04-20T20:05:40.907Z,37.58
2019-04-20T20:08:06.461Z,29.32
2019-04-20T20:10:29.345Z,34.08
2019-04-20T20:12:48.403Z,33.53
2019-04-20T20:15:15.796Z,39.38
2019-04-20T20:17:49.816Z,36.58
2019-04-20T20:20:14.390Z,45.67
2019-04-20T20:22:25.401Z,42.67
2019-04-20T20:24:36.865Z,34.55
2019-04-20T20:27:02.487Z,46.53
2019-04-20T20:29:28.483Z,41.73
2019-04-20T20:32:01.428Z,51.42
2019-04-20T20:34:14.562Z,44.13
2019-04-20T20:36:40.183Z,40.38
2019-04-20T20:38:52.520Z,42.67
2019-04-20T20:41:20.539Z,44.67
2019-04-20T20:43:51.200Z,43.10
2019-04-20T20:46:05.278Z,35.20
2019-04-20T20:48:36.532Z,35.87
2019-04-20T20:50:57.371Z,46.13
2019-04-20T20:53:14.283Z,58.65
2019-04-20T20:55:35.622Z,59.48
2019-04-20T20:58:01.070Z,38.65
2019-04-20T21:00:34.446Z,47.55
2019-04-20T21:02:44.822Z,90.57
2019-04-20T21:04:59.604Z,87.82
2019-04-20T21:07:20.646Z,57.80
2019-04-20T21:09:41.837Z,56.00
2019-04-20T21:12:12.116Z,48.23
2019-04-20T21:14:31.743Z,51.85
2019-04-20T21:17:00.410Z,46.13
2019-04-20T21:19:24.435Z,48.87
2019-04-20T21:21:46.352Z,35.43
2019-04-20T21:24:03.885Z,44.70
2019-04-20T21:26:27.079Z,52.75
2019-04-20T21:28:43.874Z,53.42
2019-04-20T21:31:12.350Z,48.00
2019-04-20T21:33:31.099Z,60.75
2019-04-20T21:35:53.199Z,53.35
2019-04-20T21:38:15.545Z,59.38
2019-04-20T21:40:39.959Z,65.55
2019-04-20T21:43:03.408Z,45.43
2019-04-20T21:45:25.336Z,54.30
2019-04-20T21:47:44.713Z,40.78
2019-04-20T21:50:26.689Z,48.95
2019-04-20T21:52:36.132Z,47.43
2019-04-20T21:54:52.062Z,32.70
2019-04-20T21:57:15.048Z,46.08
2019-04-20T21:59:42.558Z,44.95
2019-04-20T22:02:09.798Z,46.25
2019-04-20T22:04:22.959Z,43.37
2019-04-20T22:06:42.415Z,41.83
2019-04-20T22:09:09.076Z,50.60
2019-04-20T22:11:31.604Z,61.58
2019-04-20T22:13:53.358Z,60.70
2019-04-20T22:16:16.543Z,52.05
2019-04-20T22:18:48.180Z,52.05
2019-04-20T22:21:09.468Z,73.65
2019-04-20T22:23:36.637Z,55.90
2019-04-20T22:25:59.469Z,51.55
2019-04-20T22:28:08.698Z,46.98
2019-04-20T22:30:30.281Z,49.08
2019-04-20T22:32:53.694Z,44.58
2019-04-20T22:35:17.109Z,42.15
2019-04-20T22:37:42.858Z,44.63
2019-04-20T22:40:11.816Z,44.50
2019-04-20T22:42:37.902Z,52.98
2019-04-20T22:44:58.679Z,56.73
2019-04-20T22:47:22.646Z,41.50
2019-04-20T22:49:50.094Z,58.73
2019-04-20T22:52:18.433Z,55.45
2019-04-20T22:54:39.723Z,58.83
2019-04-20T22:56:58.562Z,50.25
2019-04-20T22:59:13.010Z,53.70
2019-04-20T23:01:37.565Z,45.90
2019-04-20T23:03:52.686Z,47.03
2019-04-20T23:06:14.327Z,44.50
2019-04-20T23:08:35.115Z,47.40
2019-04-20T23:10:55.763Z,50.10
2019-04-20T23:13:16.363Z,56.10
2019-04-20T23:15:36.894Z,55.60
2019-04-20T23:17:57.971Z,57.45
2019-04-20T23:20:25.289Z,69.97
2019-04-20T23:22:45.733Z,64.37
2019-04-20T23:25:05.149Z,68.80
2019-04-20T23:27:31.259Z,56.58
2019-04-20T23:29:49.193Z,59.88
2019-04-20T23:32:12.563Z,59.65
2019-04-20T23:34:34.197Z,56.80
2019-04-20T23:36:54.832Z,57.80
2019-04-20T23:39:16.907Z,56.85
2019-04-20T23:41:37.768Z,62.93
2019-04-20T23:44:04.793Z,62.50
2019-04-20T23:46:27.592Z,63.13
2019-04-20T23:48:48.158Z,67.03
2019-04-20T23:51:34.743Z,61.77
2019-04-20T23:53:43.852Z,66.77
2019-04-20T23:55:54.931Z,62.23
2019-04-20T23:58:19.494Z,59.27
